createdAt,value
2023-03-02T00:00:53.926Z,75.79
2023-03-02T00:01:35.181Z,75.83
2023-03-02T00:02:33.984Z,75.85
2023-03-02T00:03:33.895Z,75.84
2023-03-02T00:04:39.492Z,75.83
2023-03-02T00:05:34.080Z,75.91
2023-03-02T00:06:34.641Z,75.91
2023-03-02T00:07:34.766Z,75.97
2023-03-02T00:08:41.807Z,75.91
2023-03-02T00:09:34.293Z,75.85
2023-03-02T00:10:34.473Z,75.84
2023-03-02T00:11:34.741Z,75.86
2023-03-02T00:12:34.262Z,75.86
2023-03-02T00:13:33.924Z,75.81
2023-03-02T00:14:34.315Z,75.79
2023-03-02T00:15:35.189Z,75.83
2023-03-02T00:16:34.795Z,75.87
2023-03-02T00:17:34.876Z,75.84
2023-03-02T00:18:34.088Z,75.80
2023-03-02T00:19:33.527Z,75.86
2023-03-02T00:20:34.331Z,75.93
2023-03-02T00:21:34.218Z,75.93
2023-03-02T00:22:48.695Z,75.90
2023-03-02T00:23:34.816Z,75.95
2023-03-02T00:24:35.087Z,76.00
2023-03-02T00:25:34.806Z,75.91
2023-03-02T00:26:34.768Z,75.90
2023-03-02T00:27:34.566Z,75.93
2023-03-02T00:28:53.216Z,75.95
2023-03-02T00:29:34.150Z,76.04
2023-03-02T00:30:54.154Z,76.02
2023-03-02T00:31:34.387Z,76.00
2023-03-02T00:32:34.266Z,76.02
2023-03-02T00:33:34.506Z,76.09
2023-03-02T00:34:34.724Z,76.25
2023-03-02T00:35:33.958Z,76.14
2023-03-02T00:36:52.854Z,76.02
2023-03-02T00:37:34.642Z,76.06
2023-03-02T00:38:33.887Z,76.06
2023-03-02T00:39:34.268Z,76.07
2023-03-02T00:40:34.055Z,76.02
2023-03-02T00:41:33.672Z,76.06
2023-03-02T00:42:34.367Z,76.21
2023-03-02T00:43:34.107Z,76.23
2023-03-02T00:44:33.904Z,76.19
2023-03-02T00:45:34.415Z,76.19
2023-03-02T00:46:34.850Z,76.12
2023-03-02T00:47:34.054Z,76.15
2023-03-02T00:48:33.801Z,76.16
2023-03-02T00:49:34.240Z,76.18
2023-03-02T00:50:35.002Z,76.17
2023-03-02T00:51:33.937Z,76.20
2023-03-02T00:52:34.527Z,76.21
2023-03-02T00:53:34.537Z,76.23
2023-03-02T00:54:33.800Z,76.17
2023-03-02T00:55:34.859Z,76.15
2023-03-02T00:56:34.788Z,76.20
2023-03-02T00:57:34.353Z,76.16
2023-03-02T00:58:34.202Z,76.17
2023-03-02T00:59:33.980Z,76.21
2023-03-02T01:01:39.027Z,76.29
2023-03-02T01:02:34.211Z,76.41
2023-03-02T01:03:34.252Z,76.49
2023-03-02T01:04:33.835Z,76.44
2023-03-02T01:05:34.728Z,76.43
2023-03-02T01:06:34.829Z,76.44
2023-03-02T01:07:34.208Z,76.52
2023-03-02T01:08:33.788Z,76.61
2023-03-02T01:09:34.233Z,76.61
2023-03-02T01:10:34.772Z,76.54
2023-03-02T01:11:34.125Z,76.46
2023-03-02T01:12:33.895Z,76.39
2023-03-02T01:13:33.812Z,76.44
2023-03-02T01:14:34.362Z,76.55
2023-03-02T01:15:34.681Z,76.56
2023-03-02T01:16:34.841Z,76.57
2023-03-02T01:17:34.250Z,76.62
2023-03-02T01:18:33.882Z,76.71
2023-03-02T01:19:34.438Z,76.68
2023-03-02T01:20:33.984Z,76.66
2023-03-02T01:21:34.036Z,76.66
2023-03-02T01:22:33.222Z,76.73
2023-03-02T01:23:33.877Z,76.70
2023-03-02T01:24:34.550Z,76.71
2023-03-02T01:25:34.250Z,76.68
2023-03-02T01:26:34.446Z,76.67
2023-03-02T01:27:34.464Z,76.63
2023-03-02T01:28:34.211Z,76.59
2023-03-02T01:29:34.441Z,76.64
2023-03-02T01:30:34.263Z,76.59
2023-03-02T01:31:34.611Z,76.62
2023-03-02T01:32:34.326Z,76.66
2023-03-02T01:33:34.143Z,76.71
2023-03-02T01:34:34.283Z,76.74
2023-03-02T01:35:34.431Z,76.73
2023-03-02T01:36:34.944Z,76.72
2023-03-02T01:37:34.015Z,76.70
2023-03-02T01:38:33.947Z,76.68
2023-03-02T01:39:33.938Z,76.62
2023-03-02T01:40:34.605Z,76.62
2023-03-02T01:41:34.545Z,76.61
2023-03-02T01:42:34.588Z,76.66
2023-03-02T01:43:34.380Z,76.75
2023-03-02T01:44:34.023Z,76.79
2023-03-02T01:45:34.151Z,76.83
2023-03-02T01:46:34.342Z,76.84
2023-03-02T01:47:34.199Z,76.92
2023-03-02T01:48:33.756Z,76.88
2023-03-02T01:49:34.486Z,76.88
2023-03-02T01:50:34.442Z,76.84
2023-03-02T01:51:33.956Z,76.91
2023-03-02T01:52:34.493Z,76.93
2023-03-02T01:53:34.131Z,76.90
2023-03-02T01:54:33.492Z,76.91
2023-03-02T01:55:38.862Z,76.91
2023-03-02T01:56:34.638Z,76.90
2023-03-02T01:57:33.642Z,76.87
2023-03-02T01:58:34.306Z,76.83
2023-03-02T01:59:34.139Z,76.92
2023-03-02T02:00:35.887Z,76.97
2023-03-02T02:01:43.021Z,76.96
2023-03-02T02:02:34.694Z,76.88
2023-03-02T02:03:34.902Z,76.90
2023-03-02T02:04:34.863Z,76.90
2023-03-02T02:05:34.788Z,76.98
2023-03-02T02:06:35.567Z,77.01
2023-03-02T02:07:34.904Z,76.97
2023-03-02T02:08:34.789Z,76.91
2023-03-02T02:09:34.390Z,76.94
2023-03-02T02:10:34.589Z,76.92
2023-03-02T02:11:34.849Z,76.96
2023-03-02T02:12:35.090Z,76.91
2023-03-02T02:13:34.354Z,76.85
2023-03-02T02:14:33.993Z,76.89
2023-03-02T02:15:34.472Z,76.81
2023-03-02T02:16:35.023Z,76.84
2023-03-02T02:17:34.040Z,76.87
2023-03-02T02:18:33.985Z,76.91
2023-03-02T02:19:33.821Z,76.88
2023-03-02T02:20:34.861Z,76.86
2023-03-02T02:21:34.214Z,76.85
2023-03-02T02:22:33.802Z,76.88
2023-03-02T02:23:34.339Z,76.93
2023-03-02T02:24:34.184Z,76.88
2023-03-02T02:25:34.085Z,76.89
2023-03-02T02:26:34.623Z,76.88
2023-03-02T02:27:34.737Z,76.78
2023-03-02T02:28:34.046Z,76.76
2023-03-02T02:29:41.301Z,76.79
2023-03-02T02:30:34.449Z,76.80
2023-03-02T02:31:34.105Z,76.79
2023-03-02T02:32:34.083Z,76.87
2023-03-02T02:33:34.008Z,76.77
2023-03-02T02:34:33.619Z,76.70
2023-03-02T02:35:34.593Z,76.77
2023-03-02T02:36:34.666Z,76.87
2023-03-02T02:37:34.742Z,76.91
2023-03-02T02:38:34.708Z,76.93
2023-03-02T02:39:34.536Z,77.02
2023-03-02T02:40:35.012Z,76.94
2023-03-02T02:41:33.750Z,77.01
2023-03-02T02:42:34.321Z,77.00
2023-03-02T02:43:34.085Z,76.95
2023-03-02T02:44:33.996Z,76.99
2023-03-02T02:45:34.655Z,76.91
2023-03-02T02:46:35.403Z,76.93
2023-03-02T02:47:34.690Z,77.00
2023-03-02T02:48:34.106Z,77.10
2023-03-02T02:49:34.217Z,77.15
2023-03-02T02:50:34.642Z,77.13
2023-03-02T02:51:34.229Z,77.09
2023-03-02T02:52:33.953Z,77.08
2023-03-02T02:53:34.432Z,77.11
2023-03-02T02:54:35.112Z,77.10
2023-03-02T02:55:34.422Z,77.23
2023-03-02T02:56:34.226Z,77.33
2023-03-02T02:57:34.094Z,77.34
2023-03-02T02:58:34.121Z,77.34
2023-03-02T02:59:34.128Z,77.34
2023-03-02T03:00:34.903Z,77.35
2023-03-02T03:01:35.531Z,77.39
2023-03-02T03:02:34.946Z,77.43
2023-03-02T03:03:34.983Z,77.43
2023-03-02T03:04:33.878Z,77.42
2023-03-02T03:05:34.500Z,77.44
2023-03-02T03:06:34.423Z,77.37
2023-03-02T03:07:33.939Z,77.34
2023-03-02T03:08:34.454Z,77.37
2023-03-02T03:09:34.408Z,77.37
2023-03-02T03:10:34.450Z,77.33
2023-03-02T03:11:33.816Z,77.27
2023-03-02T03:12:34.309Z,77.31
2023-03-02T03:13:33.977Z,77.33
2023-03-02T03:14:34.416Z,77.38
2023-03-02T03:15:34.231Z,77.47
2023-03-02T03:16:34.797Z,77.44
2023-03-02T03:17:34.158Z,77.45
2023-03-02T03:18:34.158Z,77.44
2023-03-02T03:19:33.418Z,77.50
2023-03-02T03:20:34.805Z,77.52
2023-03-02T03:21:33.936Z,77.47
2023-03-02T03:22:34.445Z,77.38
2023-03-02T03:23:33.629Z,77.42
2023-03-02T03:24:33.883Z,77.50
2023-03-02T03:25:34.691Z,77.53
2023-03-02T03:26:34.674Z,77.41
2023-03-02T03:27:34.065Z,77.35
2023-03-02T03:28:33.695Z,77.47
2023-03-02T03:29:33.926Z,77.51
2023-03-02T03:30:34.921Z,77.52
2023-03-02T03:31:35.093Z,77.52
2023-03-02T03:32:34.007Z,77.45
2023-03-02T03:33:34.276Z,77.44
2023-03-02T03:34:34.055Z,77.45
2023-03-02T03:35:35.084Z,77.47
2023-03-02T03:36:34.774Z,77.45
2023-03-02T03:37:33.535Z,77.46
2023-03-02T03:39:34.099Z,77.55
2023-03-02T03:40:34.391Z,77.56
2023-03-02T03:41:34.324Z,77.63
2023-03-02T03:42:33.874Z,77.62
2023-03-02T03:43:34.336Z,77.63
2023-03-02T03:44:34.095Z,77.66
2023-03-02T03:45:34.253Z,77.65
2023-03-02T03:46:34.256Z,77.63
2023-03-02T03:47:34.281Z,77.66
2023-03-02T03:48:34.126Z,77.68
2023-03-02T03:49:33.953Z,77.63
2023-03-02T03:50:34.911Z,77.61
2023-03-02T03:51:34.208Z,77.62
2023-03-02T03:52:34.529Z,77.67
2023-03-02T03:53:33.873Z,77.71
2023-03-02T03:54:34.617Z,77.78
2023-03-02T03:55:34.275Z,77.74
2023-03-02T03:56:34.379Z,77.77
2023-03-02T03:57:33.542Z,77.84
2023-03-02T03:58:34.347Z,77.91
2023-03-02T03:59:33.942Z,77.91
2023-03-02T04:00:35.990Z,77.91
2023-03-02T04:01:34.622Z,77.87
2023-03-02T04:02:35.445Z,77.81
2023-03-02T04:03:34.247Z,77.84
2023-03-02T04:04:34.510Z,77.85
2023-03-02T04:05:34.880Z,77.87
2023-03-02T04:06:35.016Z,77.88
2023-03-02T04:07:35.066Z,77.90
2023-03-02T04:08:34.601Z,77.87
2023-03-02T04:09:34.428Z,77.90
2023-03-02T04:10:34.406Z,77.88
2023-03-02T04:11:34.693Z,77.87
2023-03-02T04:12:34.662Z,77.88
2023-03-02T04:13:34.316Z,77.85
2023-03-02T04:14:34.375Z,77.87
2023-03-02T04:15:34.546Z,77.87
2023-03-02T04:16:35.056Z,77.88
2023-03-02T04:17:34.488Z,77.84
2023-03-02T04:18:34.654Z,77.82
2023-03-02T04:19:34.171Z,77.84
2023-03-02T04:20:34.704Z,77.82
2023-03-02T04:21:34.887Z,77.86
2023-03-02T04:22:35.033Z,78.00
2023-03-02T04:23:33.784Z,78.02
2023-03-02T04:24:34.575Z,77.97
2023-03-02T04:25:34.606Z,77.96
2023-03-02T04:26:34.466Z,78.03
2023-03-02T04:27:33.443Z,78.06
2023-03-02T04:28:34.481Z,78.05
2023-03-02T04:29:34.559Z,78.02
2023-03-02T04:30:34.768Z,78.04
2023-03-02T04:31:34.503Z,78.02
2023-03-02T04:32:34.280Z,78.03
2023-03-02T04:33:34.614Z,78.09
2023-03-02T04:34:34.446Z,78.11
2023-03-02T04:35:34.753Z,78.10
2023-03-02T04:36:34.936Z,78.08
2023-03-02T04:37:33.674Z,78.05
2023-03-02T04:38:34.492Z,78.03
2023-03-02T04:39:34.302Z,78.02
2023-03-02T04:40:34.416Z,78.01
2023-03-02T04:41:34.304Z,78.01
2023-03-02T04:42:34.368Z,78.05
2023-03-02T04:43:33.426Z,78.06
2023-03-02T04:44:34.193Z,78.07
2023-03-02T04:45:34.391Z,78.08
2023-03-02T04:46:34.816Z,78.09
2023-03-02T04:47:34.092Z,78.08
2023-03-02T04:48:34.439Z,78.14
2023-03-02T04:49:34.420Z,78.10
2023-03-02T04:50:34.921Z,77.97
2023-03-02T04:51:35.239Z,77.92
2023-03-02T04:52:34.581Z,78.00
2023-03-02T04:53:34.682Z,78.11
2023-03-02T04:54:34.139Z,78.16
2023-03-02T04:55:34.301Z,78.14
2023-03-02T04:56:34.189Z,78.14
2023-03-02T04:57:33.860Z,78.19
2023-03-02T04:58:34.445Z,78.29
2023-03-02T04:59:34.236Z,78.27
2023-03-02T05:00:35.807Z,78.22
2023-03-02T05:01:34.600Z,78.19
2023-03-02T05:02:34.115Z,78.20
2023-03-02T05:03:34.059Z,78.27
2023-03-02T05:04:34.578Z,78.30
2023-03-02T05:05:34.480Z,78.29
2023-03-02T05:06:34.655Z,78.25
2023-03-02T05:07:34.445Z,78.19
2023-03-02T05:08:34.288Z,78.22
2023-03-02T05:09:34.549Z,78.25
2023-03-02T05:10:34.622Z,78.24
2023-03-02T05:11:34.890Z,78.21
2023-03-02T05:12:34.786Z,78.15
2023-03-02T05:13:34.132Z,78.09
2023-03-02T05:14:34.554Z,78.02
2023-03-02T05:15:34.095Z,78.02
2023-03-02T05:16:34.639Z,78.12
2023-03-02T05:17:34.436Z,78.16
2023-03-02T05:18:34.602Z,78.15
2023-03-02T05:19:34.680Z,78.09
2023-03-02T05:20:34.794Z,78.08
2023-03-02T05:21:34.198Z,78.08
2023-03-02T05:22:34.431Z,78.13
2023-03-02T05:23:35.513Z,78.19
2023-03-02T05:24:34.540Z,78.18
2023-03-02T05:25:35.226Z,78.15
2023-03-02T05:26:34.437Z,78.17
2023-03-02T05:27:34.116Z,78.22
2023-03-02T05:28:33.861Z,78.19
2023-03-02T05:29:34.423Z,78.15
2023-03-02T05:30:34.779Z,78.10
2023-03-02T05:31:35.249Z,78.09
2023-03-02T05:32:34.920Z,78.13
2023-03-02T05:33:34.690Z,78.21
2023-03-02T05:34:34.963Z,78.16
2023-03-02T05:35:35.522Z,78.09
2023-03-02T05:36:36.798Z,78.08
2023-03-02T05:37:34.809Z,78.07
2023-03-02T05:38:34.559Z,78.06
2023-03-02T05:39:34.187Z,78.03
2023-03-02T05:40:34.322Z,78.04
2023-03-02T05:41:34.338Z,78.07
2023-03-02T05:42:34.530Z,78.20
2023-03-02T05:43:34.022Z,78.25
2023-03-02T05:44:34.346Z,78.29
2023-03-02T05:45:34.683Z,78.31
2023-03-02T05:46:35.970Z,78.32
2023-03-02T05:47:34.148Z,78.35
2023-03-02T05:48:34.129Z,78.30
2023-03-02T05:49:33.772Z,78.29
2023-03-02T05:50:34.893Z,78.26
2023-03-02T05:51:34.507Z,78.25
2023-03-02T05:52:34.565Z,78.27
2023-03-02T05:53:34.574Z,78.26
2023-03-02T05:54:34.574Z,78.28
2023-03-02T05:55:35.103Z,78.30
2023-03-02T05:56:34.524Z,78.25
2023-03-02T05:57:35.042Z,78.23
2023-03-02T05:58:34.176Z,78.20
2023-03-02T05:59:33.780Z,78.25
2023-03-02T06:00:35.684Z,78.31
2023-03-02T06:01:35.310Z,78.42
2023-03-02T06:02:34.587Z,78.44
2023-03-02T06:03:34.841Z,78.46
2023-03-02T06:04:34.903Z,78.44
2023-03-02T06:05:35.323Z,78.47
2023-03-02T06:06:34.479Z,78.42
2023-03-02T06:07:35.154Z,78.40
2023-03-02T06:08:34.436Z,78.56
2023-03-02T06:09:37.071Z,78.58
2023-03-02T06:10:34.554Z,78.57
2023-03-02T06:11:34.646Z,78.48
2023-03-02T06:12:34.679Z,78.45
2023-03-02T06:13:35.342Z,78.46
2023-03-02T06:14:34.888Z,78.48
2023-03-02T06:15:35.922Z,78.41
2023-03-02T06:16:35.320Z,78.43
2023-03-02T06:17:34.945Z,78.46
2023-03-02T06:18:34.839Z,78.55
2023-03-02T06:19:34.371Z,78.58
2023-03-02T06:20:34.615Z,78.57
2023-03-02T06:21:34.390Z,78.54
2023-03-02T06:22:35.461Z,78.54
2023-03-02T06:23:36.113Z,78.60
2023-03-02T06:24:35.801Z,78.74
2023-03-02T06:25:36.035Z,78.75
2023-03-02T06:26:35.007Z,78.72
2023-03-02T06:27:34.450Z,78.70
2023-03-02T06:28:49.705Z,78.70
2023-03-02T06:29:34.311Z,78.72
2023-03-02T06:30:35.384Z,78.76
2023-03-02T06:31:34.422Z,78.89
2023-03-02T06:32:34.598Z,78.97
2023-03-02T06:33:34.847Z,79.02
2023-03-02T06:34:35.464Z,78.98
2023-03-02T06:35:35.470Z,79.02
2023-03-02T06:36:35.660Z,79.06
2023-03-02T06:37:34.643Z,79.15
2023-03-02T06:38:34.679Z,79.14
2023-03-02T06:39:34.856Z,79.14
2023-03-02T06:40:35.029Z,79.15
2023-03-02T06:41:39.706Z,79.09
2023-03-02T06:42:34.644Z,79.07
2023-03-02T06:43:35.234Z,79.13
2023-03-02T06:44:34.523Z,79.14
2023-03-02T06:45:40.486Z,79.09
2023-03-02T06:46:35.074Z,79.06
2023-03-02T06:47:39.232Z,79.03
2023-03-02T06:48:34.660Z,78.97
2023-03-02T06:49:34.447Z,78.99
2023-03-02T06:50:35.685Z,79.04
2023-03-02T06:51:34.862Z,79.06
2023-03-02T06:52:34.828Z,79.17
2023-03-02T06:53:34.960Z,79.35
2023-03-02T06:54:36.916Z,79.38
2023-03-02T06:55:35.093Z,79.40
2023-03-02T06:56:35.314Z,79.40
2023-03-02T06:57:42.444Z,79.46
2023-03-02T06:58:34.256Z,79.51
2023-03-02T06:59:34.887Z,79.49
2023-03-02T07:00:39.210Z,79.49
2023-03-02T07:01:49.525Z,79.56
2023-03-02T07:02:34.537Z,79.62
2023-03-02T07:03:34.688Z,79.69
2023-03-02T07:04:35.095Z,79.72
2023-03-02T07:05:34.616Z,79.70
2023-03-02T07:06:35.407Z,79.69
2023-03-02T07:07:34.216Z,79.71
2023-03-02T07:08:34.361Z,79.74
2023-03-02T07:09:36.388Z,79.80
2023-03-02T07:10:36.714Z,79.89
2023-03-02T07:11:35.860Z,80.01
2023-03-02T07:12:35.843Z,80.04
2023-03-02T07:13:36.106Z,80.06
2023-03-02T07:14:34.649Z,80.01
2023-03-02T07:15:35.287Z,79.99
2023-03-02T07:16:35.242Z,80.08
2023-03-02T07:17:34.718Z,80.23
2023-03-02T07:18:35.111Z,80.28
2023-03-02T07:19:35.401Z,80.35
2023-03-02T07:20:34.832Z,80.45
2023-03-02T07:21:42.268Z,80.37
2023-03-02T07:22:34.724Z,80.29
2023-03-02T07:23:34.831Z,80.29
2023-03-02T07:24:34.828Z,80.30
2023-03-02T07:25:36.422Z,80.36
2023-03-02T07:26:35.757Z,80.26
2023-03-02T07:27:34.754Z,80.16
2023-03-02T07:28:35.563Z,80.16
2023-03-02T07:29:35.152Z,80.20
2023-03-02T07:30:35.307Z,80.22
2023-03-02T07:31:35.651Z,80.18
2023-03-02T07:32:35.484Z,80.11
2023-03-02T07:33:35.123Z,80.10
2023-03-02T07:34:34.861Z,80.13
2023-03-02T07:35:35.012Z,80.28
2023-03-02T07:36:35.455Z,80.40
2023-03-02T07:37:35.561Z,80.46
2023-03-02T07:38:34.906Z,80.38
2023-03-02T07:39:35.496Z,80.29
2023-03-02T07:40:35.386Z,80.30
2023-03-02T07:41:35.555Z,80.29
2023-03-02T07:42:35.429Z,80.30
2023-03-02T07:43:34.977Z,80.29
2023-03-02T07:44:35.075Z,80.31
2023-03-02T07:45:34.911Z,80.30
2023-03-02T07:46:35.267Z,80.34
2023-03-02T07:47:34.666Z,80.26
2023-03-02T07:48:35.397Z,80.16
2023-03-02T07:49:34.933Z,80.07
2023-03-02T07:50:35.320Z,80.07
2023-03-02T07:51:34.955Z,80.14
2023-03-02T07:52:34.768Z,80.10
2023-03-02T07:53:34.932Z,80.02
2023-03-02T07:54:35.761Z,80.04
2023-03-02T07:55:35.310Z,80.08
2023-03-02T07:56:35.856Z,80.08
2023-03-02T07:57:35.476Z,80.08
2023-03-02T07:58:35.438Z,79.99
2023-03-02T07:59:34.816Z,79.93
2023-03-02T08:02:05.336Z,79.97
2023-03-02T08:02:37.193Z,79.88
2023-03-02T08:03:35.066Z,79.95
2023-03-02T08:04:35.549Z,79.92
2023-03-02T08:05:34.351Z,79.87
2023-03-02T08:06:35.464Z,79.66
2023-03-02T08:07:35.139Z,79.54
2023-03-02T08:08:34.854Z,79.38
2023-03-02T08:09:35.310Z,79.17
2023-03-02T08:10:35.748Z,78.99
2023-03-02T08:11:35.811Z,78.91
2023-03-02T08:12:35.643Z,78.76
2023-03-02T08:13:34.970Z,78.63
2023-03-02T08:14:35.313Z,78.49
2023-03-02T08:15:34.993Z,78.27
2023-03-02T08:16:34.998Z,78.15
2023-03-02T08:17:35.905Z,78.02
2023-03-02T08:18:35.547Z,77.93
2023-03-02T08:19:35.149Z,77.91
2023-03-02T08:20:34.423Z,77.80
2023-03-02T08:21:35.305Z,77.68
2023-03-02T08:22:35.180Z,77.62
2023-03-02T08:23:35.377Z,77.49
2023-03-02T08:24:35.032Z,77.39
2023-03-02T08:25:35.581Z,77.21
2023-03-02T08:26:35.608Z,76.97
2023-03-02T08:27:34.333Z,76.88
2023-03-02T08:28:34.765Z,76.91
2023-03-02T08:29:35.135Z,77.07
2023-03-02T08:30:35.251Z,76.88
2023-03-02T08:31:35.348Z,76.66
2023-03-02T08:32:35.193Z,76.55
2023-03-02T08:33:35.440Z,76.68
2023-03-02T08:34:35.007Z,76.30
2023-03-02T08:35:35.076Z,76.13
2023-03-02T08:36:35.124Z,76.08
2023-03-02T08:37:35.549Z,76.26
2023-03-02T08:38:35.515Z,76.32
2023-03-02T08:39:35.142Z,76.18
2023-03-02T08:40:35.345Z,76.08
2023-03-02T08:41:35.659Z,76.16
2023-03-02T08:42:35.001Z,76.19
2023-03-02T08:43:34.711Z,75.96
2023-03-02T08:44:35.354Z,75.80
2023-03-02T08:45:35.244Z,75.49
2023-03-02T08:46:35.169Z,75.28
2023-03-02T08:47:34.511Z,75.27
2023-03-02T08:48:34.900Z,75.25
2023-03-02T08:49:35.182Z,75.27
2023-03-02T08:50:35.204Z,75.13
2023-03-02T08:51:35.465Z,75.08
2023-03-02T08:52:35.239Z,74.82
2023-03-02T08:54:17.692Z,74.68
2023-03-02T08:54:35.644Z,74.54
2023-03-02T08:55:35.783Z,74.34
2023-03-02T08:56:35.927Z,73.92
2023-03-02T08:57:35.199Z,73.67
2023-03-02T08:58:34.599Z,73.54
2023-03-02T08:59:35.035Z,73.55
2023-03-02T09:00:36.237Z,73.59
2023-03-02T09:01:36.168Z,73.61
2023-03-02T09:02:35.622Z,73.50
2023-03-02T09:03:35.304Z,73.22
2023-03-02T09:04:35.636Z,73.07
2023-03-02T09:05:35.739Z,72.97
2023-03-02T09:06:35.641Z,72.89
2023-03-02T09:07:34.976Z,72.80
2023-03-02T09:08:39.899Z,72.74
2023-03-02T09:09:36.233Z,72.80
2023-03-02T09:10:40.397Z,72.81
2023-03-02T09:11:34.674Z,72.65
2023-03-02T09:12:35.311Z,72.40
2023-03-02T09:13:34.636Z,72.07
2023-03-02T09:14:35.216Z,71.98
2023-03-02T09:15:36.340Z,71.92
2023-03-02T09:16:35.863Z,71.84
2023-03-02T09:17:36.074Z,71.66
2023-03-02T09:18:34.789Z,71.54
2023-03-02T09:19:35.329Z,71.46
2023-03-02T09:20:35.668Z,71.44
2023-03-02T09:21:36.234Z,71.36
2023-03-02T09:22:35.388Z,71.30
2023-03-02T09:23:35.869Z,71.18
2023-03-02T09:24:35.957Z,71.29
2023-03-02T09:25:36.597Z,71.15
2023-03-02T09:26:36.009Z,71
2023-03-02T09:27:35.517Z,71.00
2023-03-02T09:28:35.666Z,71.05
2023-03-02T09:29:35.474Z,71.03
2023-03-02T09:30:35.929Z,71.04
2023-03-02T09:31:36.578Z,71.05
2023-03-02T09:32:36.478Z,70.95
2023-03-02T09:33:35.487Z,70.95
2023-03-02T09:34:34.984Z,70.86
2023-03-02T09:35:35.228Z,70.87
2023-03-02T09:36:35.424Z,70.87
2023-03-02T09:37:36.024Z,70.79
2023-03-02T09:38:35.377Z,70.83
2023-03-02T09:39:35.609Z,70.77
2023-03-02T09:40:35.608Z,70.85
2023-03-02T09:41:36.287Z,70.90
2023-03-02T09:42:44.189Z,71.05
2023-03-02T09:43:35.196Z,70.92
2023-03-02T09:44:34.254Z,70.99
2023-03-02T09:45:35.249Z,71.31
2023-03-02T09:46:35.461Z,71.24
2023-03-02T09:47:48.378Z,71.14
2023-03-02T09:48:35.056Z,71.21
2023-03-02T09:49:35.155Z,71.44
2023-03-02T09:50:35.219Z,71.72
2023-03-02T09:51:35.191Z,71.29
2023-03-02T09:52:35.244Z,71.03
2023-03-02T09:53:34.931Z,70.80
2023-03-02T09:54:36.039Z,70.87
2023-03-02T09:55:34.757Z,70.83
2023-03-02T09:56:57.435Z,70.67
2023-03-02T09:57:35.415Z,70.54
2023-03-02T09:58:49.614Z,70.48
2023-03-02T09:59:34.929Z,70.57
2023-03-02T10:00:59.705Z,70.46
2023-03-02T10:01:36.531Z,70.42
2023-03-02T10:02:35.336Z,69.94
2023-03-02T10:03:36.043Z,69.55
2023-03-02T10:04:35.478Z,69.47
2023-03-02T10:05:34.733Z,69.08
2023-03-02T10:06:34.882Z,68.74
2023-03-02T10:07:35.036Z,68.66
2023-03-02T10:08:34.960Z,68.70
2023-03-02T10:09:35.021Z,68.78
2023-03-02T10:10:35.012Z,68.70
2023-03-02T10:11:35.375Z,68.75
2023-03-02T10:12:35.222Z,68.74
2023-03-02T10:13:35.030Z,68.75
2023-03-02T10:14:34.810Z,68.82
2023-03-02T10:15:35.572Z,68.73
2023-03-02T10:16:35.798Z,68.52
2023-03-02T10:17:34.185Z,68.18
2023-03-02T10:18:34.594Z,67.97
2023-03-02T10:19:35.415Z,67.87
2023-03-02T10:20:35.397Z,67.81
2023-03-02T10:21:34.787Z,67.62
2023-03-02T10:22:35.144Z,67.34
2023-03-02T10:23:34.718Z,66.84
2023-03-02T10:24:36.102Z,66.67
2023-03-02T10:25:36.236Z,66.62
2023-03-02T10:26:36.113Z,66.31
2023-03-02T10:27:35.270Z,66.15
2023-03-02T10:28:35.465Z,66.13
2023-03-02T10:29:35.792Z,65.92
2023-03-02T10:30:36.047Z,65.87
2023-03-02T10:31:35.561Z,65.73
2023-03-02T10:32:35.713Z,65.54
2023-03-02T10:33:35.372Z,65.52
2023-03-02T10:34:35.499Z,65.36
2023-03-02T10:35:36.084Z,65.23
2023-03-02T10:36:35.959Z,65.19
2023-03-02T10:37:35.807Z,65.05
2023-03-02T10:38:36.511Z,64.87
2023-03-02T10:39:35.836Z,64.88
2023-03-02T10:40:36.042Z,64.84
2023-03-02T10:41:35.937Z,64.71
2023-03-02T10:42:36.990Z,64.81
2023-03-02T10:43:36.183Z,65.01
2023-03-02T10:44:35.314Z,65.04
2023-03-02T10:45:36.055Z,64.91
2023-03-02T10:46:35.752Z,64.97
2023-03-02T10:47:35.578Z,64.64
2023-03-02T10:48:40.983Z,64.62
2023-03-02T10:49:35.663Z,64.74
2023-03-02T10:50:36.769Z,64.66
2023-03-02T10:51:36.820Z,64.45
2023-03-02T10:52:36.480Z,64.54
2023-03-02T10:53:36.085Z,64.22
2023-03-02T10:54:35.989Z,64.30
2023-03-02T10:55:35.987Z,64.21
2023-03-02T10:56:35.738Z,64.11
2023-03-02T10:57:36.060Z,63.97
2023-03-02T10:58:35.139Z,63.83
2023-03-02T10:59:36.403Z,63.83
2023-03-02T11:00:37.450Z,63.80
2023-03-02T11:01:36.363Z,64.06
2023-03-02T11:02:37.064Z,64.19
2023-03-02T11:03:37.767Z,64.11
2023-03-02T11:04:38.604Z,64.12
2023-03-02T11:05:39.039Z,64.46
2023-03-02T11:06:37.575Z,64.71
2023-03-02T11:07:37.966Z,64.90
2023-03-02T11:08:37.539Z,65.17
2023-03-02T11:09:36.092Z,65.31
2023-03-02T11:10:37.152Z,65.81
2023-03-02T11:11:37.117Z,66.12
2023-03-02T11:12:36.393Z,65.83
2023-03-02T11:13:36.132Z,65.51
2023-03-02T11:14:35.952Z,65.36
2023-03-02T11:15:37.157Z,65.58
2023-03-02T11:16:36.369Z,65.43
2023-03-02T11:17:35.654Z,65.22
2023-03-02T11:18:35.838Z,65.48
2023-03-02T11:19:36.232Z,65.22
2023-03-02T11:20:37.144Z,64.83
2023-03-02T11:21:35.802Z,64.99
2023-03-02T11:22:36.630Z,64.94
2023-03-02T11:23:35.905Z,64.43
2023-03-02T11:24:36.473Z,64.12
2023-03-02T11:25:35.870Z,64.21
2023-03-02T11:26:36.101Z,64.09
2023-03-02T11:27:35.478Z,64.13
2023-03-02T11:28:36.470Z,63.94
2023-03-02T11:29:36.461Z,63.82
2023-03-02T11:30:36.649Z,63.54
2023-03-02T11:31:41.489Z,63.31
2023-03-02T11:32:36.243Z,63.24
2023-03-02T11:33:41.185Z,63.08
2023-03-02T11:34:35.563Z,63.05
2023-03-02T11:35:41.295Z,63.26
2023-03-02T11:36:34.990Z,63.15
2023-03-02T11:37:41.736Z,62.95
2023-03-02T11:38:35.241Z,62.85
2023-03-02T11:39:37.402Z,62.92
2023-03-02T11:40:35.489Z,63.02
2023-03-02T11:41:35.844Z,62.88
2023-03-02T11:42:36.134Z,62.75
2023-03-02T11:43:35.688Z,62.88
2023-03-02T11:44:35.619Z,62.74
2023-03-02T11:45:45.107Z,62.48
2023-03-02T11:46:38.537Z,62.54
2023-03-02T11:47:45.604Z,62.54
2023-03-02T11:48:35.036Z,62.47
2023-03-02T11:49:35.495Z,62.49
2023-03-02T11:50:35.605Z,62.45
2023-03-02T11:51:36.891Z,62.53
2023-03-02T11:52:35.308Z,62.57
2023-03-02T11:53:49.577Z,62.44
2023-03-02T11:54:35.342Z,62.39
2023-03-02T11:55:35.134Z,62.43
2023-03-02T11:56:35.438Z,62.65
2023-03-02T11:57:34.949Z,62.54
2023-03-02T11:58:35.954Z,62.68
2023-03-02T11:59:35.466Z,62.76
2023-03-02T12:00:37.037Z,62.79
2023-03-02T12:01:50.115Z,62.82
2023-03-02T12:02:35.575Z,62.58
2023-03-02T12:03:35.813Z,62.35
2023-03-02T12:04:35.110Z,62.18
2023-03-02T12:05:34.835Z,62.20
2023-03-02T12:06:35.731Z,62.14
2023-03-02T12:07:40.484Z,62.00
2023-03-02T12:08:35.010Z,61.80
2023-03-02T12:09:39.708Z,61.80
2023-03-02T12:10:35.670Z,61.75
2023-03-02T12:11:40.422Z,61.59
2023-03-02T12:12:34.832Z,61.56
2023-03-02T12:13:35.185Z,61.47
2023-03-02T12:14:34.894Z,61.43
2023-03-02T12:15:35.257Z,61.51
2023-03-02T12:16:35.790Z,61.60
2023-03-02T12:17:43.279Z,61.61
2023-03-02T12:18:35.283Z,61.72
2023-03-02T12:19:34.733Z,61.75
2023-03-02T12:20:35.238Z,61.63
2023-03-02T12:21:35.586Z,61.68
2023-03-02T12:22:35.304Z,61.58
2023-03-02T12:23:35.133Z,61.40
2023-03-02T12:24:34.868Z,61.18
2023-03-02T12:25:35.501Z,61.04
2023-03-02T12:26:36.263Z,61.15
2023-03-02T12:27:35.779Z,61.18
2023-03-02T12:28:36.227Z,61.19
2023-03-02T12:29:35.375Z,61.31
2023-03-02T12:30:36.032Z,61.23
2023-03-02T12:31:49.078Z,61.21
2023-03-02T12:32:35.168Z,61.27
2023-03-02T12:34:04.149Z,61.61
2023-03-02T12:34:34.839Z,61.84
2023-03-02T12:35:35.968Z,62.36
2023-03-02T12:36:35.418Z,62.86
2023-03-02T12:37:34.917Z,62.97
2023-03-02T12:38:35.463Z,62.99
2023-03-02T12:39:35.211Z,63.04
2023-03-02T12:40:34.970Z,62.45
2023-03-02T12:41:35.454Z,62.19
2023-03-02T12:42:35.667Z,62
2023-03-02T12:43:35.282Z,61.71
2023-03-02T12:44:35.043Z,61.93
2023-03-02T12:45:35.732Z,62.23
2023-03-02T12:46:35.665Z,62.21
2023-03-02T12:47:35.985Z,62.09
2023-03-02T12:48:33.953Z,61.74
2023-03-02T12:49:34.800Z,61.00
2023-03-02T12:50:35.130Z,61.00
2023-03-02T12:51:35.339Z,61.04
2023-03-02T12:52:37.386Z,60.46
2023-03-02T12:53:35.429Z,60.60
2023-03-02T12:54:34.928Z,60.47
2023-03-02T12:55:35.520Z,60.56